createdAt,value
2023-01-06T00:00:41.322Z,97838.03
2023-01-06T00:05:42.967Z,97822.22
2023-01-06T00:10:44.841Z,97821.91
2023-01-06T00:15:46.871Z,97812.63
2023-01-06T00:20:48.563Z,97804.16
2023-01-06T00:25:51.188Z,97807.63
2023-01-06T00:30:53.155Z,97801.66
2023-01-06T00:35:59.358Z,97802.50
2023-01-06T00:41:04.229Z,97806.41
2023-01-06T00:46:06.064Z,97803.00
2023-01-06T00:51:07.808Z,97793.22
2023-01-06T00:56:09.479Z,97789.94
2023-01-06T01:01:11.519Z,97797.53
2023-01-06T01:06:13.466Z,97784.84
2023-01-06T01:11:35.081Z,97779.50
2023-01-06T01:16:36.889Z,97785.25
2023-01-06T01:21:39.387Z,97793.19
2023-01-06T01:26:41.683Z,97789.66
2023-01-06T01:31:44.401Z,97790.16
2023-01-06T01:36:47.094Z,97781.75
2023-01-06T01:41:49.501Z,97775.75
2023-01-06T01:46:51.295Z,97787.31
2023-01-06T01:51:56.972Z,97777.38
2023-01-06T01:57:05.277Z,97777.84
2023-01-06T02:02:07.149Z,97778.66
2023-01-06T02:07:09.184Z,97772.53
2023-01-06T02:12:11.526Z,97766.03
2023-01-06T02:17:47.304Z,97752.50
2023-01-06T02:23:13.791Z,97745.84
2023-01-06T02:28:51.842Z,97744.56
2023-01-06T02:34:03.513Z,97742.72
2023-01-06T02:39:30.467Z,97743.69
2023-01-06T02:44:46.736Z,97725.31
2023-01-06T02:50:00.546Z,97726.97
2023-01-06T02:55:12.780Z,97731.97
2023-01-06T03:00:21.283Z,97723.66
2023-01-06T03:05:25.674Z,97725.81
2023-01-06T03:10:29.831Z,97717.03
2023-01-06T03:15:31.851Z,97714.53
2023-01-06T03:20:34.142Z,97713.47
2023-01-06T03:25:38.293Z,97711.78
2023-01-06T03:31:05.767Z,97701.38
2023-01-06T03:36:28.248Z,97700.19
2023-01-06T03:41:58.801Z,97693.91
2023-01-06T03:47:15.152Z,97689.16
2023-01-06T03:52:31.095Z,97698.06
2023-01-06T03:57:37.878Z,97690.03
2023-01-06T04:02:43.440Z,97696.44
2023-01-06T04:07:50.907Z,97708.63
2023-01-06T04:12:53.970Z,97703.16
2023-01-06T04:18:00.590Z,97706.28
2023-01-06T04:23:05.925Z,97711.34
2023-01-06T04:28:11.854Z,97696.69
2023-01-06T04:33:13.661Z,97694.19
2023-01-06T04:38:18.137Z,97712.16
2023-01-06T04:43:19.950Z,97702.97
2023-01-06T04:48:22.212Z,97693.13
2023-01-06T04:53:23.888Z,97692.66
2023-01-06T04:58:25.604Z,97681.63
2023-01-06T05:03:27.561Z,97675.00
2023-01-06T05:08:31.042Z,97679.84
2023-01-06T05:13:33.310Z,97673.69
2023-01-06T05:18:35.159Z,97674.50
2023-01-06T05:23:37.834Z,97675.63
2023-01-06T05:28:39.526Z,97678.03
2023-01-06T05:33:41.583Z,97680.88
2023-01-06T05:38:43.463Z,97674.66
2023-01-06T05:43:45.273Z,97675.75
2023-01-06T05:48:46.986Z,97679.91
2023-01-06T05:53:49.134Z,97687.72
2023-01-06T05:58:52.635Z,97688.41
2023-01-06T06:03:54.772Z,97687.78
2023-01-06T06:08:57.861Z,97677.81
2023-01-06T06:13:59.614Z,97688.88
2023-01-06T06:19:01.377Z,97682.47
2023-01-06T06:24:03.295Z,97676.78
2023-01-06T06:29:06.438Z,97674.28
2023-01-06T06:34:12.447Z,97674.22
2023-01-06T06:39:14.158Z,97667.66
2023-01-06T06:44:15.851Z,97662.69
2023-01-06T06:49:17.879Z,97667.56
2023-01-06T06:54:19.549Z,97665.47
2023-01-06T06:59:21.235Z,97670.28
2023-01-06T07:04:22.984Z,97670.06
2023-01-06T07:09:24.728Z,97660.47
2023-01-06T07:14:26.506Z,97664.16
2023-01-06T07:19:28.553Z,97662.78
2023-01-06T07:24:30.211Z,97671.44
2023-01-06T07:29:31.867Z,97669.19
2023-01-06T07:34:33.600Z,97680.66
2023-01-06T07:39:35.409Z,97687.19
2023-01-06T07:44:37.680Z,97689.44
2023-01-06T07:49:39.386Z,97692.63
2023-01-06T07:54:41.126Z,97690.03
2023-01-06T07:59:42.723Z,97696.56
2023-01-06T08:04:44.583Z,97685.06
2023-01-06T08:09:46.243Z,97673.81
2023-01-06T08:14:47.985Z,97675.59
2023-01-06T08:19:49.750Z,97683.16
2023-01-06T08:24:51.500Z,97691.56
2023-01-06T08:29:55.227Z,97689.91
2023-01-06T08:34:56.802Z,97699.38
2023-01-06T08:39:58.499Z,97710.16
2023-01-06T08:45:00.308Z,97713.94
2023-01-06T08:50:02.164Z,97721.75
2023-01-06T08:55:04.247Z,97710.63
2023-01-06T09:00:07.323Z,97714.16
2023-01-06T09:05:09.409Z,97711.13
2023-01-06T09:10:13.679Z,97727.47
2023-01-06T09:15:15.900Z,97716.28
2023-01-06T09:20:17.846Z,97731.19
2023-01-06T09:25:21.475Z,97722.34
2023-01-06T09:30:25.181Z,97724.09
2023-01-06T09:35:27.078Z,97732.75
2023-01-06T09:41:10.094Z,97725.47
2023-01-06T09:46:14.168Z,97731.59
2023-01-06T09:51:22.757Z,97728.13
2023-01-06T09:56:25.635Z,97734.28
2023-01-06T10:01:38.999Z,97736.53
2023-01-06T10:06:40.628Z,97745.03
2023-01-06T10:11:51.349Z,97735.59
2023-01-06T10:17:24.232Z,97729.97
2023-01-06T10:22:49.788Z,97717.91
2023-01-06T10:27:59.264Z,97712.56
2023-01-06T10:33:01.814Z,97711.91
2023-01-06T10:38:06.888Z,97709.41
2023-01-06T10:43:12.344Z,97704.94
2023-01-06T10:48:20.138Z,97703.94
2023-01-06T10:53:21.906Z,97710.66
2023-01-06T10:58:41.851Z,97707.09
2023-01-06T11:03:45.076Z,97705.91
2023-01-06T11:08:47.195Z,97700.78
2023-01-06T11:13:55.971Z,97689.91
2023-01-06T11:19:04.204Z,97681.38
2023-01-06T11:24:17.919Z,97686.28
2023-01-06T11:29:26.502Z,97688.81
2023-01-06T11:34:31.270Z,97694.63
2023-01-06T11:39:35.885Z,97695.13
2023-01-06T11:44:40.291Z,97676.97
2023-01-06T11:49:54.426Z,97667.25
2023-01-06T11:54:57.541Z,97658.53
2023-01-06T12:00:33.207Z,97652.38
2023-01-06T12:05:43.092Z,97647.88
2023-01-06T12:10:48.323Z,97660.94
2023-01-06T12:16:00.103Z,97663.47
2023-01-06T12:21:04.888Z,97649.59
2023-01-06T12:26:16.284Z,97662.25
2023-01-06T12:31:35.216Z,97662.19
2023-01-06T12:36:47.921Z,97657.94
2023-01-06T12:41:57.681Z,97657.00
2023-01-06T12:47:06.367Z,97661.34
2023-01-06T12:52:15.332Z,97671.78
2023-01-06T12:57:16.983Z,97681.09
2023-01-06T13:02:25.260Z,97681.09
2023-01-06T13:07:42.439Z,97676.66
2023-01-06T13:12:44.069Z,97676.16
2023-01-06T13:18:05.760Z,97686.03
2023-01-06T13:23:16.513Z,97674.94
2023-01-06T13:28:40.963Z,97672.53
2023-01-06T13:34:01.160Z,97677.25
2023-01-06T13:39:23.228Z,97679.84
2023-01-06T13:44:29.296Z,97683.34
2023-01-06T13:49:31.953Z,97687.69
2023-01-06T13:54:39.790Z,97684.88
2023-01-06T13:59:52.576Z,97693.34
2023-01-06T14:04:54.279Z,97679.38
2023-01-06T14:09:56.031Z,97680.44
2023-01-06T14:15:01.564Z,97670.56
2023-01-06T14:20:04.043Z,97673.75
2023-01-06T14:25:08.827Z,97670.72
2023-01-06T14:30:21.024Z,97660.91
2023-01-06T14:35:29.419Z,97662.94
2023-01-06T14:40:39.668Z,97675.34
2023-01-06T14:45:42.977Z,97672.59
2023-01-06T14:50:51.970Z,97678.88
2023-01-06T14:55:55.203Z,97675.09
2023-01-06T15:00:57.898Z,97672.41
2023-01-06T15:06:29.123Z,97682.53
2023-01-06T15:11:33.395Z,97679.97
2023-01-06T15:16:38.794Z,97673.41
2023-01-06T15:21:42.850Z,97683.84
2023-01-06T15:26:44.561Z,97688.97
2023-01-06T15:31:48.088Z,97692.53
2023-01-06T15:36:53.373Z,97688.72
2023-01-06T15:41:56.822Z,97688.28
2023-01-06T15:47:06.484Z,97692.22
2023-01-06T15:52:24.447Z,97697.72
2023-01-06T15:57:30.388Z,97701.03
2023-01-06T16:02:33.498Z,97705.38
2023-01-06T16:07:39.050Z,97706.91
2023-01-06T16:12:40.801Z,97712.25
2023-01-06T16:17:46.355Z,97722.66
2023-01-06T16:22:51.258Z,97719.06
2023-01-06T16:27:59.279Z,97713.59
2023-01-06T16:33:01.052Z,97716.75
2023-01-06T16:38:03.631Z,97717.53
2023-01-06T16:43:05.301Z,97716.47
2023-01-06T16:48:07.092Z,97721.69
2023-01-06T16:53:15.329Z,97721.84
2023-01-06T16:58:22.950Z,97712.75
2023-01-06T17:03:28.689Z,97713.31
2023-01-06T17:08:34.557Z,97719.63
2023-01-06T17:13:36.633Z,97723.88
2023-01-06T17:18:52.430Z,97722.16
2023-01-06T17:24:25.539Z,97731.84
2023-01-06T17:29:32.767Z,97726.31
2023-01-06T17:34:36.952Z,97738.31
2023-01-06T17:39:41.025Z,97745.03
2023-01-06T17:44:48.765Z,97739.66
2023-01-06T17:50:01.119Z,97747.69
2023-01-06T17:55:27.450Z,97761.88
2023-01-06T18:00:34.866Z,97762.38
2023-01-06T18:05:36.550Z,97764.00
2023-01-06T18:10:42.583Z,97759.94
2023-01-06T18:15:46.590Z,97762.78
2023-01-06T18:21:19.532Z,97764.91
2023-01-06T18:26:24.019Z,97766.75
2023-01-06T18:31:32.125Z,97770.56
2023-01-06T18:36:33.889Z,97771.47
2023-01-06T18:41:35.583Z,97766.59
2023-01-06T18:46:40.388Z,97772.56
2023-01-06T18:51:42.754Z,97769.25
2023-01-06T18:56:44.549Z,97760.63
2023-01-06T19:01:50.469Z,97769.47
2023-01-06T19:06:57.966Z,97770.06
2023-01-06T19:12:13.375Z,97772.47
2023-01-06T19:17:33.156Z,97760.63
2023-01-06T19:22:38.028Z,97757.31
2023-01-06T19:28:02.494Z,97757.41
2023-01-06T19:33:18.182Z,97756.31
2023-01-06T19:38:25.527Z,97752.44
2023-01-06T19:43:33.016Z,97755.41
2023-01-06T19:48:41.248Z,97742.03
2023-01-06T19:53:49.046Z,97751.09
2023-01-06T19:58:58.516Z,97752.97
2023-01-06T20:04:00.732Z,97758.06
2023-01-06T20:09:02.476Z,97761.13
2023-01-06T20:14:04.256Z,97755.66
2023-01-06T20:19:05.949Z,97760.94
2023-01-06T20:24:07.912Z,97755.56
2023-01-06T20:29:09.964Z,97764.84
2023-01-06T20:34:11.670Z,97773.56
2023-01-06T20:39:15.109Z,97777.03
2023-01-06T20:44:16.801Z,97769.00
2023-01-06T20:49:20.494Z,97759.69
2023-01-06T20:54:22.343Z,97760.78
2023-01-06T20:59:24.378Z,97767.09
2023-01-06T21:04:26.228Z,97762.44
2023-01-06T21:09:29.235Z,97772.06
2023-01-06T21:14:32.251Z,97763.63
2023-01-06T21:19:34.684Z,97758.16
2023-01-06T21:24:36.412Z,97760.28
2023-01-06T21:29:38.174Z,97755.97
2023-01-06T21:34:39.917Z,97749.19
2023-01-06T21:39:41.843Z,97741.16
2023-01-06T21:44:43.779Z,97739.50
2023-01-06T21:49:45.988Z,97744.88
2023-01-06T21:54:47.818Z,97745.97
2023-01-06T21:59:49.691Z,97748.03
2023-01-06T22:04:52.582Z,97741.75
2023-01-06T22:09:55.465Z,97733.63
2023-01-06T22:14:57.308Z,97749.09
2023-01-06T22:19:59.304Z,97731.63
2023-01-06T22:25:01.870Z,97732.81
2023-01-06T22:30:04.930Z,97730.47
2023-01-06T22:35:07.419Z,97737.09
2023-01-06T22:40:11.025Z,97741.41
2023-01-06T22:45:13.187Z,97741.41
2023-01-06T22:50:15.202Z,97731.13
2023-01-06T22:55:16.955Z,97730.47
2023-01-06T23:00:19.065Z,97739.16
2023-01-06T23:05:20.970Z,97738.41
2023-01-06T23:10:22.857Z,97736.34
2023-01-06T23:15:24.617Z,97728.50
2023-01-06T23:20:26.334Z,97734.44
2023-01-06T23:25:27.977Z,97728.81
2023-01-06T23:30:29.635Z,97728.63
2023-01-06T23:35:31.965Z,97721.44
2023-01-06T23:40:33.725Z,97715.97
2023-01-06T23:45:35.567Z,97697.53
2023-01-06T23:50:37.370Z,97696.03
2023-01-06T23:55:38.966Z,97685.34
